sensor_id;sensor_type;location;lat;lon;timestamp;P1;durP1;ratioP1;P2;durP2;ratioP2
44764;SDS011;30484;52.382;5.260;2023-04-25T00:01:24;30.85;;;3.92;;
44764;SDS011;30484;52.382;5.260;2023-04-25T00:03:55;27.77;;;4.65;;
44764;SDS011;30484;52.382;5.260;2023-04-25T00:06:33;22.17;;;3.60;;
44764;SDS011;30484;52.382;5.260;2023-04-25T00:09:03;25.05;;;3.78;;
44764;SDS011;30484;52.382;5.260;2023-04-25T00:11:37;38.40;;;4.18;;
44764;SDS011;30484;52.382;5.260;2023-04-25T00:14:08;28.15;;;3.58;;
44764;SDS011;30484;52.382;5.260;2023-04-25T00:16:37;22.08;;;3.53;;
44764;SDS011;30484;52.382;5.260;2023-04-25T00:19:07;26.77;;;3.97;;
44764;SDS011;30484;52.382;5.260;2023-04-25T00:21:37;23.20;;;4.63;;
44764;SDS011;30484;52.382;5.260;2023-04-25T00:24:12;25.13;;;4.03;;
44764;SDS011;30484;52.382;5.260;2023-04-25T00:26:43;27.13;;;5.22;;
44764;SDS011;30484;52.382;5.260;2023-04-25T00:29:12;26.15;;;3.65;;
44764;SDS011;30484;52.382;5.260;2023-04-25T00:31:43;29.13;;;3.60;;
44764;SDS011;30484;52.382;5.260;2023-04-25T00:34:16;30.10;;;4.03;;
44764;SDS011;30484;52.382;5.260;2023-04-25T00:36:45;20.50;;;3.53;;
44764;SDS011;30484;52.382;5.260;2023-04-25T00:39:15;24.27;;;3.53;;
44764;SDS011;30484;52.382;5.260;2023-04-25T00:41:46;19.45;;;3.80;;
44764;SDS011;30484;52.382;5.260;2023-04-25T00:44:20;26.67;;;4.35;;
44764;SDS011;30484;52.382;5.260;2023-04-25T00:46:49;26.45;;;3.83;;
44764;SDS011;30484;52.382;5.260;2023-04-25T00:49:21;23.73;;;3.53;;
44764;SDS011;30484;52.382;5.260;2023-04-25T00:51:51;25.77;;;4.05;;
44764;SDS011;30484;52.382;5.260;2023-04-25T00:54:20;18.65;;;3.47;;
44764;SDS011;30484;52.382;5.260;2023-04-25T00:56:50;29.58;;;3.70;;
44764;SDS011;30484;52.382;5.260;2023-04-25T00:59:20;20.95;;;2.80;;
44764;SDS011;30484;52.382;5.260;2023-04-25T01:01:49;19.02;;;3.03;;
44764;SDS011;30484;52.382;5.260;2023-04-25T01:04:19;20.15;;;3.40;;
44764;SDS011;30484;52.382;5.260;2023-04-25T01:06:49;25.88;;;3.30;;
44764;SDS011;30484;52.382;5.260;2023-04-25T01:09:19;25.08;;;3.20;;
44764;SDS011;30484;52.382;5.260;2023-04-25T01:11:51;22.42;;;3.08;;
44764;SDS011;30484;52.382;5.260;2023-04-25T01:14:23;32.13;;;3.72;;
44764;SDS011;30484;52.382;5.260;2023-04-25T01:16:52;23.80;;;3.67;;
44764;SDS011;30484;52.382;5.260;2023-04-25T01:19:21;28.20;;;4.50;;
44764;SDS011;30484;52.382;5.260;2023-04-25T01:21:52;19.98;;;3.30;;
44764;SDS011;30484;52.382;5.260;2023-04-25T01:24:22;25.67;;;3.53;;
44764;SDS011;30484;52.382;5.260;2023-04-25T01:26:54;22.52;;;3.17;;
44764;SDS011;30484;52.382;5.260;2023-04-25T01:29:27;31.33;;;4.25;;
44764;SDS011;30484;52.382;5.260;2023-04-25T01:31:57;23.38;;;3.30;;
44764;SDS011;30484;52.382;5.260;2023-04-25T01:34:30;29.45;;;3.63;;
44764;SDS011;30484;52.382;5.260;2023-04-25T01:37:03;26.85;;;3.22;;
44764;SDS011;30484;52.382;5.260;2023-04-25T01:39:35;29.15;;;3.80;;
44764;SDS011;30484;52.382;5.260;2023-04-25T01:42:05;30.70;;;5.05;;
44764;SDS011;30484;52.382;5.260;2023-04-25T01:44:34;28.40;;;3.85;;
44764;SDS011;30484;52.382;5.260;2023-04-25T01:47:03;29.38;;;4.00;;
44764;SDS011;30484;52.382;5.260;2023-04-25T01:49:33;20.10;;;3.58;;
44764;SDS011;30484;52.382;5.260;2023-04-25T01:52:04;26.65;;;3.65;;
44764;SDS011;30484;52.382;5.260;2023-04-25T01:54:32;24.10;;;3.65;;
44764;SDS011;30484;52.382;5.260;2023-04-25T01:57:04;19.90;;;3.15;;
44764;SDS011;30484;52.382;5.260;2023-04-25T01:59:34;24.83;;;3.83;;
44764;SDS011;30484;52.382;5.260;2023-04-25T02:02:03;18.13;;;2.80;;
44764;SDS011;30484;52.382;5.260;2023-04-25T02:04:33;22.85;;;3.03;;
44764;SDS011;30484;52.382;5.260;2023-04-25T02:07:06;30.52;;;4.18;;
44764;SDS011;30484;52.382;5.260;2023-04-25T02:09:37;14.38;;;2.55;;
44764;SDS011;30484;52.382;5.260;2023-04-25T02:12:07;28.92;;;3.28;;
44764;SDS011;30484;52.382;5.260;2023-04-25T02:14:41;21.88;;;2.85;;
44764;SDS011;30484;52.382;5.260;2023-04-25T02:17:11;24.52;;;3.42;;
44764;SDS011;30484;52.382;5.260;2023-04-25T02:19:42;21.20;;;2.83;;
44764;SDS011;30484;52.382;5.260;2023-04-25T02:22:13;22.80;;;3.20;;
44764;SDS011;30484;52.382;5.260;2023-04-25T02:24:49;22.33;;;3.63;;
44764;SDS011;30484;52.382;5.260;2023-04-25T02:27:17;31.02;;;3.60;;
44764;SDS011;30484;52.382;5.260;2023-04-25T02:29:46;24.33;;;3.38;;
44764;SDS011;30484;52.382;5.260;2023-04-25T02:32:16;23.17;;;4.20;;
44764;SDS011;30484;52.382;5.260;2023-04-25T02:34:48;18.33;;;2.65;;
44764;SDS011;30484;52.382;5.260;2023-04-25T02:37:18;21.52;;;3.10;;
44764;SDS011;30484;52.382;5.260;2023-04-25T02:39:48;19.55;;;3.78;;
44764;SDS011;30484;52.382;5.260;2023-04-25T02:42:18;17.30;;;3.33;;
44764;SDS011;30484;52.382;5.260;2023-04-25T02:44:47;26.77;;;3.45;;
44764;SDS011;30484;52.382;5.260;2023-04-25T02:47:17;27.08;;;3.00;;
44764;SDS011;30484;52.382;5.260;2023-04-25T02:49:47;31.60;;;4.22;;
44764;SDS011;30484;52.382;5.260;2023-04-25T02:52:19;25.35;;;3.35;;
44764;SDS011;30484;52.382;5.260;2023-04-25T02:54:49;24.42;;;3.20;;
44764;SDS011;30484;52.382;5.260;2023-04-25T02:57:20;26.17;;;4.07;;
44764;SDS011;30484;52.382;5.260;2023-04-25T02:59:50;24.42;;;3.17;;
44764;SDS011;30484;52.382;5.260;2023-04-25T03:02:19;34.47;;;3.90;;
44764;SDS011;30484;52.382;5.260;2023-04-25T03:04:49;20.67;;;3.05;;
44764;SDS011;30484;52.382;5.260;2023-04-25T03:07:20;28.75;;;3.92;;
44764;SDS011;30484;52.382;5.260;2023-04-25T03:09:50;28.30;;;4.03;;
44764;SDS011;30484;52.382;5.260;2023-04-25T03:12:20;18.35;;;3.38;;
44764;SDS011;30484;52.382;5.260;2023-04-25T03:14:51;22.02;;;3.10;;
44764;SDS011;30484;52.382;5.260;2023-04-25T03:17:21;24.35;;;3.63;;
44764;SDS011;30484;52.382;5.260;2023-04-25T03:19:51;23.27;;;3.13;;
44764;SDS011;30484;52.382;5.260;2023-04-25T03:22:23;22.75;;;3.22;;
44764;SDS011;30484;52.382;5.260;2023-04-25T03:24:54;32.15;;;3.15;;
44764;SDS011;30484;52.382;5.260;2023-04-25T03:27:24;31.58;;;3.78;;
44764;SDS011;30484;52.382;5.260;2023-04-25T03:29:55;11.60;;;2.00;;
44764;SDS011;30484;52.382;5.260;2023-04-25T03:32:25;13.32;;;2.05;;
44764;SDS011;30484;52.382;5.260;2023-04-25T03:34:54;17.48;;;2.25;;
44764;SDS011;30484;52.382;5.260;2023-04-25T03:37:25;8.90;;;1.70;;
44764;SDS011;30484;52.382;5.260;2023-04-25T03:39:54;13.00;;;1.90;;
44764;SDS011;30484;52.382;5.260;2023-04-25T03:42:26;6.13;;;1.50;;
44764;SDS011;30484;52.382;5.260;2023-04-25T03:44:55;10.90;;;2.20;;
44764;SDS011;30484;52.382;5.260;2023-04-25T03:47:24;7.70;;;1.55;;
44764;SDS011;30484;52.382;5.260;2023-04-25T03:49:55;10.07;;;1.48;;
44764;SDS011;30484;52.382;5.260;2023-04-25T03:52:26;13.35;;;1.85;;
44764;SDS011;30484;52.382;5.260;2023-04-25T03:54:56;12.23;;;1.80;;
44764;SDS011;30484;52.382;5.260;2023-04-25T03:57:26;13.07;;;1.83;;
44764;SDS011;30484;52.382;5.260;2023-04-25T03:59:55;11.02;;;2.05;;
44764;SDS011;30484;52.382;5.260;2023-04-25T04:02:25;19.83;;;2.40;;
44764;SDS011;30484;52.382;5.260;2023-04-25T04:05:00;11.90;;;1.85;;
44764;SDS011;30484;52.382;5.260;2023-04-25T04:07:35;8.88;;;1.73;;
44764;SDS011;30484;52.382;5.260;2023-04-25T04:10:08;14.18;;;2.22;;
44764;SDS011;30484;52.382;5.260;2023-04-25T04:12:39;15.30;;;2.30;;
44764;SDS011;30484;52.382;5.260;2023-04-25T04:15:08;15.02;;;2.78;;
44764;SDS011;30484;52.382;5.260;2023-04-25T04:17:38;15.30;;;2.58;;
44764;SDS011;30484;52.382;5.260;2023-04-25T04:20:09;17.25;;;2.38;;
44764;SDS011;30484;52.382;5.260;2023-04-25T04:22:39;18.02;;;2.00;;
44764;SDS011;30484;52.382;5.260;2023-04-25T04:25:12;25.15;;;2.85;;
44764;SDS011;30484;52.382;5.260;2023-04-25T04:27:43;13.98;;;2.40;;
44764;SDS011;30484;52.382;5.260;2023-04-25T04:30:14;16.10;;;2.95;;
44764;SDS011;30484;52.382;5.260;2023-04-25T04:32:52;10.95;;;1.90;;
44764;SDS011;30484;52.382;5.260;2023-04-25T04:35:31;21.42;;;2.78;;
44764;SDS011;30484;52.382;5.260;2023-04-25T04:38:06;17.10;;;2.85;;
44764;SDS011;30484;52.382;5.260;2023-04-25T04:40:43;15.43;;;2.40;;
44764;SDS011;30484;52.382;5.260;2023-04-25T04:43:14;18.25;;;2.67;;
44764;SDS011;30484;52.382;5.260;2023-04-25T04:45:49;17.58;;;2.50;;
44764;SDS011;30484;52.382;5.260;2023-04-25T04:48:31;18.88;;;2.33;;
44764;SDS011;30484;52.382;5.260;2023-04-25T04:51:04;16.35;;;2.47;;
44764;SDS011;30484;52.382;5.260;2023-04-25T04:53:41;14.00;;;2.35;;
44764;SDS011;30484;52.382;5.260;2023-04-25T04:56:16;14.48;;;1.88;;
44764;SDS011;30484;52.382;5.260;2023-04-25T04:58:50;12.43;;;2.10;;
44764;SDS011;30484;52.382;5.260;2023-04-25T05:01:23;11.23;;;2.33;;
44764;SDS011;30484;52.382;5.260;2023-04-25T05:03:55;14.88;;;2.60;;
44764;SDS011;30484;52.382;5.260;2023-04-25T05:06:37;15.82;;;2.47;;
44764;SDS011;30484;52.382;5.260;2023-04-25T05:09:13;11.60;;;2.08;;
44764;SDS011;30484;52.382;5.260;2023-04-25T05:12:23;13.70;;;2.40;;
44764;SDS011;30484;52.382;5.260;2023-04-25T05:14:53;16.05;;;2.65;;
44764;SDS011;30484;52.382;5.260;2023-04-25T05:17:23;18.83;;;2.58;;
44764;SDS011;30484;52.382;5.260;2023-04-25T05:19:58;19.52;;;2.53;;
44764;SDS011;30484;52.382;5.260;2023-04-25T05:22:44;13.80;;;2.28;;
44764;SDS011;30484;52.382;5.260;2023-04-25T05:25:14;17.63;;;2.95;;
44764;SDS011;30484;52.382;5.260;2023-04-25T05:27:45;17.25;;;2.38;;
44764;SDS011;30484;52.382;5.260;2023-04-25T05:30:15;14.50;;;2.10;;
44764;SDS011;30484;52.382;5.260;2023-04-25T05:32:45;16.83;;;2.60;;
44764;SDS011;30484;52.382;5.260;2023-04-25T05:35:21;18.20;;;2.70;;
44764;SDS011;30484;52.382;5.260;2023-04-25T05:37:52;8.07;;;2.15;;
44764;SDS011;30484;52.382;5.260;2023-04-25T05:40:24;17.63;;;3.10;;
44764;SDS011;30484;52.382;5.260;2023-04-25T05:42:53;15.65;;;2.42;;
44764;SDS011;30484;52.382;5.260;2023-04-25T05:45:25;14.85;;;2.28;;
44764;SDS011;30484;52.382;5.260;2023-04-25T05:47:55;19.58;;;2.63;;
44764;SDS011;30484;52.382;5.260;2023-04-25T05:50:24;14.70;;;2.60;;
44764;SDS011;30484;52.382;5.260;2023-04-25T05:53:06;14.48;;;2.25;;
44764;SDS011;30484;52.382;5.260;2023-04-25T05:55:38;14.70;;;2.25;;
44764;SDS011;30484;52.382;5.260;2023-04-25T05:58:08;17.45;;;2.75;;
44764;SDS011;30484;52.382;5.260;2023-04-25T06:00:37;18.17;;;2.92;;
44764;SDS011;30484;52.382;5.260;2023-04-25T06:03:07;16.95;;;3.38;;
44764;SDS011;30484;52.382;5.260;2023-04-25T06:05:37;18.42;;;2.95;;
44764;SDS011;30484;52.382;5.260;2023-04-25T06:08:07;16.77;;;2.65;;
44764;SDS011;30484;52.382;5.260;2023-04-25T06:10:40;21.30;;;2.33;;
44764;SDS011;30484;52.382;5.260;2023-04-25T06:13:10;10.75;;;1.92;;
44764;SDS011;30484;52.382;5.260;2023-04-25T06:15:42;19.30;;;2.58;;
44764;SDS011;30484;52.382;5.260;2023-04-25T06:18:14;20.27;;;3.10;;
44764;SDS011;30484;52.382;5.260;2023-04-25T06:20:43;29.45;;;3.83;;
44764;SDS011;30484;52.382;5.260;2023-04-25T06:23:14;13.57;;;2.20;;
44764;SDS011;30484;52.382;5.260;2023-04-25T06:25:45;32.90;;;3.10;;
44764;SDS011;30484;52.382;5.260;2023-04-25T06:28:15;14.30;;;2.20;;
44764;SDS011;30484;52.382;5.260;2023-04-25T06:30:45;10.63;;;2.00;;
44764;SDS011;30484;52.382;5.260;2023-04-25T06:33:15;18.40;;;2.40;;
44764;SDS011;30484;52.382;5.260;2023-04-25T06:35:44;12.10;;;1.83;;
44764;SDS011;30484;52.382;5.260;2023-04-25T06:38:14;13.02;;;2.22;;
44764;SDS011;30484;52.382;5.260;2023-04-25T06:40:50;24.10;;;2.92;;
44764;SDS011;30484;52.382;5.260;2023-04-25T06:43:20;18.95;;;2.45;;
44764;SDS011;30484;52.382;5.260;2023-04-25T06:45:51;21.15;;;2.67;;
44764;SDS011;30484;52.382;5.260;2023-04-25T06:48:22;14.77;;;2.38;;
44764;SDS011;30484;52.382;5.260;2023-04-25T06:50:52;22.67;;;3.17;;
44764;SDS011;30484;52.382;5.260;2023-04-25T06:53:23;23.88;;;2.80;;
44764;SDS011;30484;52.382;5.260;2023-04-25T06:55:55;14.65;;;2.88;;
44764;SDS011;30484;52.382;5.260;2023-04-25T06:58:24;15.13;;;2.15;;
44764;SDS011;30484;52.382;5.260;2023-04-25T07:00:55;14.93;;;2.15;;
44764;SDS011;30484;52.382;5.260;2023-04-25T07:03:31;14.73;;;1.92;;
44764;SDS011;30484;52.382;5.260;2023-04-25T07:06:00;16.58;;;2.05;;
44764;SDS011;30484;52.382;5.260;2023-04-25T07:08:30;15.43;;;2.30;;
44764;SDS011;30484;52.382;5.260;2023-04-25T07:11:02;17.65;;;2.13;;
44764;SDS011;30484;52.382;5.260;2023-04-25T07:13:33;15.35;;;1.90;;
44764;SDS011;30484;52.382;5.260;2023-04-25T07:16:03;19.45;;;2.65;;
44764;SDS011;30484;52.382;5.260;2023-04-25T07:18:35;15.52;;;2.42;;
44764;SDS011;30484;52.382;5.260;2023-04-25T07:21:09;17.00;;;2.13;;
44764;SDS011;30484;52.382;5.260;2023-04-25T07:23:43;13.05;;;2.38;;
44764;SDS011;30484;52.382;5.260;2023-04-25T07:26:14;14.15;;;2.60;;
44764;SDS011;30484;52.382;5.260;2023-04-25T07:28:43;13.50;;;1.88;;
44764;SDS011;30484;52.382;5.260;2023-04-25T07:31:14;13.40;;;3.15;;
44764;SDS011;30484;52.382;5.260;2023-04-25T07:33:44;8.40;;;1.85;;
44764;SDS011;30484;52.382;5.260;2023-04-25T07:36:13;11.18;;;1.90;;
44764;SDS011;30484;52.382;5.260;2023-04-25T07:38:44;14.20;;;2.10;;
44764;SDS011;30484;52.382;5.260;2023-04-25T07:41:15;12.18;;;1.48;;
44764;SDS011;30484;52.382;5.260;2023-04-25T07:43:44;12.65;;;1.77;;
44764;SDS011;30484;52.382;5.260;2023-04-25T07:46:14;15.85;;;1.77;;
44764;SDS011;30484;52.382;5.260;2023-04-25T07:48:47;10.50;;;1.40;;
44764;SDS011;30484;52.382;5.260;2023-04-25T07:51:16;9.85;;;2.13;;
44764;SDS011;30484;52.382;5.260;2023-04-25T07:53:48;9.75;;;1.75;;
44764;SDS011;30484;52.382;5.260;2023-04-25T07:56:23;13.40;;;1.90;;
44764;SDS011;30484;52.382;5.260;2023-04-25T07:59:10;9.68;;;1.55;;
44764;SDS011;30484;52.382;5.260;2023-04-25T08:01:40;15.10;;;2.13;;
44764;SDS011;30484;52.382;5.260;2023-04-25T08:04:11;20.15;;;2.60;;
44764;SDS011;30484;52.382;5.260;2023-04-25T08:06:42;10.00;;;1.77;;
44764;SDS011;30484;52.382;5.260;2023-04-25T08:09:11;9.45;;;2.00;;
44764;SDS011;30484;52.382;5.260;2023-04-25T08:11:43;11.55;;;1.90;;
44764;SDS011;30484;52.382;5.260;2023-04-25T08:14:14;9.63;;;1.83;;
44764;SDS011;30484;52.382;5.260;2023-04-25T08:16:44;11.35;;;1.88;;
44764;SDS011;30484;52.382;5.260;2023-04-25T08:19:20;17.25;;;1.70;;
44764;SDS011;30484;52.382;5.260;2023-04-25T08:21:49;11.20;;;1.90;;
44764;SDS011;30484;52.382;5.260;2023-04-25T08:24:19;6.00;;;1.42;;
44764;SDS011;30484;52.382;5.260;2023-04-25T08:26:57;14.63;;;1.55;;
44764;SDS011;30484;52.382;5.260;2023-04-25T08:29:26;9.48;;;1.45;;
44764;SDS011;30484;52.382;5.260;2023-04-25T08:31:56;8.93;;;1.67;;
44764;SDS011;30484;52.382;5.260;2023-04-25T08:34:29;7.85;;;1.50;;
44764;SDS011;30484;52.382;5.260;2023-04-25T08:37:01;12.05;;;1.65;;
44764;SDS011;30484;52.382;5.260;2023-04-25T08:39:32;11.82;;;2.22;;
44764;SDS011;30484;52.382;5.260;2023-04-25T08:42:05;15.15;;;1.88;;
44764;SDS011;30484;52.382;5.260;2023-04-25T08:44:35;14.55;;;1.77;;
44764;SDS011;30484;52.382;5.260;2023-04-25T08:47:06;6.60;;;1.65;;
44764;SDS011;30484;52.382;5.260;2023-04-25T08:49:39;14.02;;;2.35;;
44764;SDS011;30484;52.382;5.260;2023-04-25T08:52:11;10.60;;;1.65;;
44764;SDS011;30484;52.382;5.260;2023-04-25T08:54:43;10.13;;;1.77;;
44764;SDS011;30484;52.382;5.260;2023-04-25T08:57:18;11.77;;;1.38;;
44764;SDS011;30484;52.382;5.260;2023-04-25T08:59:47;7.18;;;1.35;;
44764;SDS011;30484;52.382;5.260;2023-04-25T09:02:21;5.90;;;1.00;;
44764;SDS011;30484;52.382;5.260;2023-04-25T09:04:51;3.42;;;1.05;;
44764;SDS011;30484;52.382;5.260;2023-04-25T09:07:22;5.97;;;1.30;;
44764;SDS011;30484;52.382;5.260;2023-04-25T09:09:54;6.10;;;1.05;;
44764;SDS011;30484;52.382;5.260;2023-04-25T09:12:30;7.18;;;1.20;;
44764;SDS011;30484;52.382;5.260;2023-04-25T09:15:06;6.07;;;1.13;;
44764;SDS011;30484;52.382;5.260;2023-04-25T09:17:38;10.52;;;2.00;;
44764;SDS011;30484;52.382;5.260;2023-04-25T09:20:11;11.90;;;1.80;;
44764;SDS011;30484;52.382;5.260;2023-04-25T09:22:47;9.68;;;1.42;;
44764;SDS011;30484;52.382;5.260;2023-04-25T09:25:15;8.35;;;1.60;;
44764;SDS011;30484;52.382;5.260;2023-04-25T09:27:53;10.77;;;1.70;;
44764;SDS011;30484;52.382;5.260;2023-04-25T09:30:30;10.73;;;1.67;;
44764;SDS011;30484;52.382;5.260;2023-04-25T09:33:04;10.88;;;1.73;;
44764;SDS011;30484;52.382;5.260;2023-04-25T09:35:36;10.13;;;1.88;;
44764;SDS011;30484;52.382;5.260;2023-04-25T09:38:24;8.05;;;1.60;;
44764;SDS011;30484;52.382;5.260;2023-04-25T09:40:52;10.30;;;1.73;;
44764;SDS011;30484;52.382;5.260;2023-04-25T09:43:25;8.13;;;1.77;;
44764;SDS011;30484;52.382;5.260;2023-04-25T09:45:55;12.05;;;1.63;;
44764;SDS011;30484;52.382;5.260;2023-04-25T09:48:28;9.65;;;1.58;;
44764;SDS011;30484;52.382;5.260;2023-04-25T09:51:06;10.20;;;1.67;;
44764;SDS011;30484;52.382;5.260;2023-04-25T09:53:40;8.05;;;1.63;;
44764;SDS011;30484;52.382;5.260;2023-04-25T09:56:11;14.48;;;1.73;;
44764;SDS011;30484;52.382;5.260;2023-04-25T09:58:42;15.20;;;1.50;;
44764;SDS011;30484;52.382;5.260;2023-04-25T10:01:11;12.10;;;1.48;;
44764;SDS011;30484;52.382;5.260;2023-04-25T10:03:40;9.35;;;1.88;;
44764;SDS011;30484;52.382;5.260;2023-04-25T10:06:11;10.40;;;2.20;;
44764;SDS011;30484;52.382;5.260;2023-04-25T10:08:47;6.47;;;1.63;;
44764;SDS011;30484;52.382;5.260;2023-04-25T10:11:22;9.90;;;1.55;;
44764;SDS011;30484;52.382;5.260;2023-04-25T10:13:55;11.25;;;1.67;;
44764;SDS011;30484;52.382;5.260;2023-04-25T10:16:24;12.77;;;1.70;;
44764;SDS011;30484;52.382;5.260;2023-04-25T10:18:57;10.32;;;2.03;;
44764;SDS011;30484;52.382;5.260;2023-04-25T10:21:25;11.25;;;1.85;;
44764;SDS011;30484;52.382;5.260;2023-04-25T10:23:57;6.13;;;1.40;;
44764;SDS011;30484;52.382;5.260;2023-04-25T10:26:26;8.63;;;1.98;;
44764;SDS011;30484;52.382;5.260;2023-04-25T10:29:07;11.20;;;2.10;;
44764;SDS011;30484;52.382;5.260;2023-04-25T10:31:44;12.38;;;2.15;;
44764;SDS011;30484;52.382;5.260;2023-04-25T10:34:14;9.75;;;1.65;;
44764;SDS011;30484;52.382;5.260;2023-04-25T10:36:49;12.07;;;2.00;;
44764;SDS011;30484;52.382;5.260;2023-04-25T10:39:23;12.23;;;1.85;;
44764;SDS011;30484;52.382;5.260;2023-04-25T10:41:55;11.38;;;2.00;;
44764;SDS011;30484;52.382;5.260;2023-04-25T10:44:27;9.93;;;1.85;;
44764;SDS011;30484;52.382;5.260;2023-04-25T10:46:57;11.80;;;2.00;;
44764;SDS011;30484;52.382;5.260;2023-04-25T10:49:32;13.90;;;2.17;;
44764;SDS011;30484;52.382;5.260;2023-04-25T10:52:12;12.20;;;1.73;;
44764;SDS011;30484;52.382;5.260;2023-04-25T10:54:46;13.85;;;1.75;;
44764;SDS011;30484;52.382;5.260;2023-04-25T10:57:27;10.05;;;1.60;;
44764;SDS011;30484;52.382;5.260;2023-04-25T11:00:10;8.75;;;1.55;;
44764;SDS011;30484;52.382;5.260;2023-04-25T11:02:42;19.65;;;2.05;;
44764;SDS011;30484;52.382;5.260;2023-04-25T11:05:23;9.45;;;1.73;;
44764;SDS011;30484;52.382;5.260;2023-04-25T11:08:24;10.70;;;1.77;;
44764;SDS011;30484;52.382;5.260;2023-04-25T11:11:08;7.93;;;1.77;;
44764;SDS011;30484;52.382;5.260;2023-04-25T11:13:38;8.40;;;1.75;;
44764;SDS011;30484;52.382;5.260;2023-04-25T11:16:23;8.27;;;1.30;;
44764;SDS011;30484;52.382;5.260;2023-04-25T11:18:56;7.63;;;2.13;;
44764;SDS011;30484;52.382;5.260;2023-04-25T11:21:26;6.57;;;1.98;;
44764;SDS011;30484;52.382;5.260;2023-04-25T11:23:59;4.65;;;1.27;;
44764;SDS011;30484;52.382;5.260;2023-04-25T11:26:32;6.85;;;1.50;;
44764;SDS011;30484;52.382;5.260;2023-04-25T11:29:04;5.93;;;1.25;;
44764;SDS011;30484;52.382;5.260;2023-04-25T11:31:34;5.78;;;1.30;;
44764;SDS011;30484;52.382;5.260;2023-04-25T11:34:04;7.32;;;1.67;;
44764;SDS011;30484;52.382;5.260;2023-04-25T11:36:40;9.68;;;1.23;;
44764;SDS011;30484;52.382;5.260;2023-04-25T11:39:09;6.93;;;1.42;;
44764;SDS011;30484;52.382;5.260;2023-04-25T11:41:42;4.30;;;1.23;;
44764;SDS011;30484;52.382;5.260;2023-04-25T11:44:11;9.23;;;1.30;;
44764;SDS011;30484;52.382;5.260;2023-04-25T11:46:51;9.75;;;1.58;;
44764;SDS011;30484;52.382;5.260;2023-04-25T11:49:22;5.95;;;0.95;;
44764;SDS011;30484;52.382;5.260;2023-04-25T11:51:52;10.38;;;1.55;;
44764;SDS011;30484;52.382;5.260;2023-04-25T11:54:20;4.70;;;1.27;;
44764;SDS011;30484;52.382;5.260;2023-04-25T11:56:57;6.30;;;1.35;;
44764;SDS011;30484;52.382;5.260;2023-04-25T11:59:28;5.53;;;1.15;;
44764;SDS011;30484;52.382;5.260;2023-04-25T12:01:59;5.00;;;1.20;;
44764;SDS011;30484;52.382;5.260;2023-04-25T12:04:29;5.53;;;1.30;;
44764;SDS011;30484;52.382;5.260;2023-04-25T12:07:09;5.78;;;1.20;;
44764;SDS011;30484;52.382;5.260;2023-04-25T12:09:38;5.22;;;1.13;;
44764;SDS011;30484;52.382;5.260;2023-04-25T12:12:09;7.22;;;1.45;;
44764;SDS011;30484;52.382;5.260;2023-04-25T12:14:38;8.02;;;1.33;;
44764;SDS011;30484;52.382;5.260;2023-04-25T12:17:18;8.43;;;1.58;;
44764;SDS011;30484;52.382;5.260;2023-04-25T12:19:47;8.25;;;1.35;;
44764;SDS011;30484;52.382;5.260;2023-04-25T12:22:19;5.45;;;1.00;;
44764;SDS011;30484;52.382;5.260;2023-04-25T12:24:50;8.25;;;1.40;;
44764;SDS011;30484;52.382;5.260;2023-04-25T12:27:25;7.20;;;1.42;;
44764;SDS011;30484;52.382;5.260;2023-04-25T12:29:55;9.20;;;1.60;;
44764;SDS011;30484;52.382;5.260;2023-04-25T12:32:27;4.55;;;1.30;;
44764;SDS011;30484;52.382;5.260;2023-04-25T12:34:56;5.18;;;1.15;;
44764;SDS011;30484;52.382;5.260;2023-04-25T12:37:36;6.05;;;1.60;;
44764;SDS011;30484;52.382;5.260;2023-04-25T12:40:11;5.47;;;1.38;;
44764;SDS011;30484;52.382;5.260;2023-04-25T12:42:40;6.30;;;1.50;;
44764;SDS011;30484;52.382;5.260;2023-04-25T12:45:08;8.18;;;1.23;;
44764;SDS011;30484;52.382;5.260;2023-04-25T12:47:39;8.98;;;1.60;;
44764;SDS011;30484;52.382;5.260;2023-04-25T12:50:07;10.55;;;1.42;;
44764;SDS011;30484;52.382;5.260;2023-04-25T12:52:37;7.30;;;1.40;;
44764;SDS011;30484;52.382;5.260;2023-04-25T12:55:07;4.43;;;1.10;;
44764;SDS011;30484;52.382;5.260;2023-04-25T12:57:35;10.40;;;1.45;;
44764;SDS011;30484;52.382;5.260;2023-04-25T13:00:07;6.68;;;1.40;;
44764;SDS011;30484;52.382;5.260;2023-04-25T13:02:42;8.00;;;1.55;;
44764;SDS011;30484;52.382;5.260;2023-04-25T13:05:14;8.00;;;1.98;;
44764;SDS011;30484;52.382;5.260;2023-04-25T13:07:42;8.00;;;1.77;;
44764;SDS011;30484;52.382;5.260;2023-04-25T13:10:18;7.75;;;1.52;;
44764;SDS011;30484;52.382;5.260;2023-04-25T13:12:47;11.68;;;1.60;;
44764;SDS011;30484;52.382;5.260;2023-04-25T13:15:15;13.00;;;1.70;;
44764;SDS011;30484;52.382;5.260;2023-04-25T13:17:48;5.85;;;1.40;;
44764;SDS011;30484;52.382;5.260;2023-04-25T13:20:17;6.53;;;1.25;;
44764;SDS011;30484;52.382;5.260;2023-04-25T13:22:48;6.00;;;1.50;;
44764;SDS011;30484;52.382;5.260;2023-04-25T13:25:17;9.65;;;1.65;;
44764;SDS011;30484;52.382;5.260;2023-04-25T13:27:46;6.43;;;1.17;;
44764;SDS011;30484;52.382;5.260;2023-04-25T13:30:17;6.65;;;1.52;;
44764;SDS011;30484;52.382;5.260;2023-04-25T13:32:50;7.10;;;1.63;;
44764;SDS011;30484;52.382;5.260;2023-04-25T13:35:22;10.48;;;1.55;;
44764;SDS011;30484;52.382;5.260;2023-04-25T13:37:51;6.80;;;1.50;;
44764;SDS011;30484;52.382;5.260;2023-04-25T13:40:19;9.48;;;1.60;;
44764;SDS011;30484;52.382;5.260;2023-04-25T13:42:51;6.80;;;1.50;;
44764;SDS011;30484;52.382;5.260;2023-04-25T13:45:19;6.90;;;1.50;;
44764;SDS011;30484;52.382;5.260;2023-04-25T13:47:48;9.65;;;1.50;;
44764;SDS011;30484;52.382;5.260;2023-04-25T13:50:18;9.75;;;2.03;;
44764;SDS011;30484;52.382;5.260;2023-04-25T13:52:47;14.55;;;2.50;;
44764;SDS011;30484;52.382;5.260;2023-04-25T13:55:20;5.65;;;1.48;;
44764;SDS011;30484;52.382;5.260;2023-04-25T13:57:51;7.68;;;1.70;;
44764;SDS011;30484;52.382;5.260;2023-04-25T14:00:19;18.33;;;2.50;;
44764;SDS011;30484;52.382;5.260;2023-04-25T14:02:50;7.57;;;1.70;;
44764;SDS011;30484;52.382;5.260;2023-04-25T14:05:22;11.73;;;1.80;;
44764;SDS011;30484;52.382;5.260;2023-04-25T14:07:51;12.85;;;1.80;;
44764;SDS011;30484;52.382;5.260;2023-04-25T14:10:21;13.63;;;1.70;;
44764;SDS011;30484;52.382;5.260;2023-04-25T14:12:50;7.78;;;1.90;;
44764;SDS011;30484;52.382;5.260;2023-04-25T14:15:19;16.45;;;1.80;;
44764;SDS011;30484;52.382;5.260;2023-04-25T14:17:51;8.02;;;1.48;;
44764;SDS011;30484;52.382;5.260;2023-04-25T14:20:19;7.55;;;1.65;;
44764;SDS011;30484;52.382;5.260;2023-04-25T14:22:50;6.70;;;1.58;;
44764;SDS011;30484;52.382;5.260;2023-04-25T14:25:21;10.23;;;2.97;;
44764;SDS011;30484;52.382;5.260;2023-04-25T14:27:53;9.57;;;1.35;;
44764;SDS011;30484;52.382;5.260;2023-04-25T14:30:22;8.02;;;1.45;;
44764;SDS011;30484;52.382;5.260;2023-04-25T14:32:52;8.45;;;2.25;;
44764;SDS011;30484;52.382;5.260;2023-04-25T14:35:22;5.20;;;1.58;;
44764;SDS011;30484;52.382;5.260;2023-04-25T14:37:53;8.73;;;1.88;;
44764;SDS011;30484;52.382;5.260;2023-04-25T14:40:24;5.93;;;1.58;;
44764;SDS011;30484;52.382;5.260;2023-04-25T14:42:53;10.95;;;1.77;;
44764;SDS011;30484;52.382;5.260;2023-04-25T14:45:24;7.75;;;2.10;;
44764;SDS011;30484;52.382;5.260;2023-04-25T14:47:55;6.07;;;1.55;;
44764;SDS011;30484;52.382;5.260;2023-04-25T14:50:36;8.57;;;1.77;;
44764;SDS011;30484;52.382;5.260;2023-04-25T14:53:05;10.80;;;1.60;;
44764;SDS011;30484;52.382;5.260;2023-04-25T14:55:34;10.32;;;1.58;;
44764;SDS011;30484;52.382;5.260;2023-04-25T14:58:03;6.90;;;1.73;;
44764;SDS011;30484;52.382;5.260;2023-04-25T15:00:32;6.50;;;1.65;;
44764;SDS011;30484;52.382;5.260;2023-04-25T15:03:03;6.80;;;1.70;;
44764;SDS011;30484;52.382;5.260;2023-04-25T15:05:34;4.55;;;1.10;;